<?xml version="1.0" encoding="UTF-8" standalone="no" ?>
<gpx xmlns="http://www.topografix.com/GPX/1/1" xmlns:xsi="http://www.w3.org/2001/XMLSchema-instance" xsi:schemaLocation="http://www.topografix.com/GPX/1/1 http://www.topografix.com/GPX/1/1/gpx.xsd" version="1.1" creator="VisuGPX - https://www.visugpx.com">
  <metadata>
    <name>randonnee-pic-d-estibat-depuis-le-col-de-por 10km 4heures</name>
    <desc><![CDATA[A faire dans la neige]]></desc>
  </metadata>
  <trk>
    <name><![CDATA[Pic d' Estibat depuis le col de Port]]></name>
    <trkseg>
      <trkpt lat="42.89932" lon="1.45261">
        <ele>1251</ele>
        <time>2016-01-01T11:33:46+01:00</time>
      </trkpt>
      <trkpt lat="42.89869" lon="1.4525">
        <ele>1257</ele>
        <time>2016-01-01T11:33:51+01:00</time>
      </trkpt>
      <trkpt lat="42.89773" lon="1.45317">
        <ele>1273</ele>
        <time>2016-01-01T11:33:56+01:00</time>
      </trkpt>
      <trkpt lat="42.89646" lon="1.45383">
        <ele>1286</ele>
        <time>2016-01-01T11:34:01+01:00</time>
      </trkpt>
      <trkpt lat="42.89655" lon="1.45302">
        <ele>1306</ele>
        <time>2016-01-01T11:34:06+01:00</time>
      </trkpt>
      <trkpt lat="42.89592" lon="1.45203">
        <ele>1342</ele>
        <time>2016-01-01T11:34:11+01:00</time>
      </trkpt>
      <trkpt lat="42.89511" lon="1.45113">
        <ele>1380</ele>
        <time>2016-01-01T11:34:16+01:00</time>
      </trkpt>
      <trkpt lat="42.89424" lon="1.4515">
        <ele>1384</ele>
        <time>2016-01-01T11:34:21+01:00</time>
      </trkpt>
      <trkpt lat="42.8935" lon="1.45135">
        <ele>1400</ele>
        <time>2016-01-01T11:34:26+01:00</time>
      </trkpt>
      <trkpt lat="42.89202" lon="1.45066">
        <ele>1462</ele>
        <time>2016-01-01T11:34:31+01:00</time>
      </trkpt>
      <trkpt lat="42.88984" lon="1.44997">
        <ele>1536</ele>
        <time>2016-01-01T11:34:36+01:00</time>
      </trkpt>
      <trkpt lat="42.88901" lon="1.44774">
        <ele>1582</ele>
        <time>2016-01-01T11:34:41+01:00</time>
      </trkpt>
      <trkpt lat="42.88781" lon="1.44551">
        <ele>1645</ele>
        <time>2016-01-01T11:34:46+01:00</time>
      </trkpt>
      <trkpt lat="42.88776" lon="1.44347">
        <ele>1632</ele>
        <time>2016-01-01T11:34:51+01:00</time>
      </trkpt>
      <trkpt lat="42.88808" lon="1.44143">
        <ele>1612</ele>
        <time>2016-01-01T11:34:56+01:00</time>
      </trkpt>
      <trkpt lat="42.88784" lon="1.43984">
        <ele>1597</ele>
        <time>2016-01-01T11:35:01+01:00</time>
      </trkpt>
      <trkpt lat="42.88786" lon="1.43766">
        <ele>1590</ele>
        <time>2016-01-01T11:35:06+01:00</time>
      </trkpt>
      <trkpt lat="42.88732" lon="1.43653">
        <ele>1588</ele>
        <time>2016-01-01T11:35:11+01:00</time>
      </trkpt>
      <trkpt lat="42.88717" lon="1.43523">
        <ele>1563</ele>
        <time>2016-01-01T11:35:16+01:00</time>
      </trkpt>
      <trkpt lat="42.88679" lon="1.43306">
        <ele>1539</ele>
        <time>2016-01-01T11:35:21+01:00</time>
      </trkpt>
      <trkpt lat="42.88688" lon="1.4304">
        <ele>1501</ele>
        <time>2016-01-01T11:35:26+01:00</time>
      </trkpt>
      <trkpt lat="42.88728" lon="1.4286">
        <ele>1469</ele>
        <time>2016-01-01T11:35:31+01:00</time>
      </trkpt>
      <trkpt lat="42.88842" lon="1.42584">
        <ele>1445</ele>
        <time>2016-01-01T11:35:36+01:00</time>
      </trkpt>
      <trkpt lat="42.8893" lon="1.42403">
        <ele>1423</ele>
        <time>2016-01-01T11:35:41+01:00</time>
      </trkpt>
      <trkpt lat="42.88956" lon="1.42223">
        <ele>1399</ele>
        <time>2016-01-01T11:35:46+01:00</time>
      </trkpt>
      <trkpt lat="42.89171" lon="1.41903">
        <ele>1289</ele>
        <time>2016-01-01T11:35:51+01:00</time>
      </trkpt>
      <trkpt lat="42.89198" lon="1.41635">
        <ele>1230</ele>
        <time>2016-01-01T11:35:56+01:00</time>
      </trkpt>
      <trkpt lat="42.89206" lon="1.41444">
        <ele>1209</ele>
        <time>2016-01-01T11:36:01+01:00</time>
      </trkpt>
      <trkpt lat="42.89246" lon="1.41276">
        <ele>1196</ele>
        <time>2016-01-01T11:36:06+01:00</time>
      </trkpt>
      <trkpt lat="42.89352" lon="1.41392">
        <ele>1183</ele>
        <time>2016-01-01T11:36:11+01:00</time>
      </trkpt>
      <trkpt lat="42.89382" lon="1.41527">
        <ele>1176</ele>
        <time>2016-01-01T11:36:16+01:00</time>
      </trkpt>
      <trkpt lat="42.89515" lon="1.41667">
        <ele>1120</ele>
        <time>2016-01-01T11:36:21+01:00</time>
      </trkpt>
      <trkpt lat="42.89481" lon="1.41772">
        <ele>1121</ele>
        <time>2016-01-01T11:36:26+01:00</time>
      </trkpt>
      <trkpt lat="42.89405" lon="1.41877">
        <ele>1148</ele>
        <time>2016-01-01T11:36:31+01:00</time>
      </trkpt>
      <trkpt lat="42.89438" lon="1.42047">
        <ele>1139</ele>
        <time>2016-01-01T11:36:36+01:00</time>
      </trkpt>
      <trkpt lat="42.89407" lon="1.42163">
        <ele>1150</ele>
        <time>2016-01-01T11:36:41+01:00</time>
      </trkpt>
      <trkpt lat="42.89454" lon="1.42212">
        <ele>1135</ele>
        <time>2016-01-01T11:36:46+01:00</time>
      </trkpt>
      <trkpt lat="42.89463" lon="1.42296">
        <ele>1137</ele>
        <time>2016-01-01T11:36:51+01:00</time>
      </trkpt>
      <trkpt lat="42.89424" lon="1.4245">
        <ele>1154</ele>
        <time>2016-01-01T11:36:56+01:00</time>
      </trkpt>
      <trkpt lat="42.89506" lon="1.42626">
        <ele>1144</ele>
        <time>2016-01-01T11:37:01+01:00</time>
      </trkpt>
      <trkpt lat="42.89456" lon="1.42787">
        <ele>1156</ele>
        <time>2016-01-01T11:37:06+01:00</time>
      </trkpt>
      <trkpt lat="42.89433" lon="1.42787">
        <ele>1164</ele>
        <time>2016-01-01T11:37:11+01:00</time>
      </trkpt>
      <trkpt lat="42.89457" lon="1.42637">
        <ele>1163</ele>
        <time>2016-01-01T11:37:16+01:00</time>
      </trkpt>
      <trkpt lat="42.894" lon="1.42572">
        <ele>1179</ele>
        <time>2016-01-01T11:37:21+01:00</time>
      </trkpt>
      <trkpt lat="42.8935" lon="1.42482">
        <ele>1191</ele>
        <time>2016-01-01T11:37:26+01:00</time>
      </trkpt>
      <trkpt lat="42.89393" lon="1.42595">
        <ele>1185</ele>
        <time>2016-01-01T11:37:31+01:00</time>
      </trkpt>
      <trkpt lat="42.89411" lon="1.42682">
        <ele>1181</ele>
        <time>2016-01-01T11:37:36+01:00</time>
      </trkpt>
      <trkpt lat="42.89371" lon="1.42833">
        <ele>1192</ele>
        <time>2016-01-01T11:37:41+01:00</time>
      </trkpt>
      <trkpt lat="42.89322" lon="1.42946">
        <ele>1214</ele>
        <time>2016-01-01T11:37:46+01:00</time>
      </trkpt>
      <trkpt lat="42.8947" lon="1.43042">
        <ele>1202</ele>
        <time>2016-01-01T11:37:51+01:00</time>
      </trkpt>
      <trkpt lat="42.89545" lon="1.43019">
        <ele>1193</ele>
        <time>2016-01-01T11:37:56+01:00</time>
      </trkpt>
      <trkpt lat="42.89602" lon="1.4311">
        <ele>1206</ele>
        <time>2016-01-01T11:38:01+01:00</time>
      </trkpt>
      <trkpt lat="42.89608" lon="1.43236">
        <ele>1226</ele>
        <time>2016-01-01T11:38:06+01:00</time>
      </trkpt>
      <trkpt lat="42.89682" lon="1.4326">
        <ele>1205</ele>
        <time>2016-01-01T11:38:11+01:00</time>
      </trkpt>
      <trkpt lat="42.89737" lon="1.43311">
        <ele>1205</ele>
        <time>2016-01-01T11:38:16+01:00</time>
      </trkpt>
      <trkpt lat="42.89779" lon="1.4339">
        <ele>1200</ele>
        <time>2016-01-01T11:38:21+01:00</time>
      </trkpt>
      <trkpt lat="42.89776" lon="1.43495">
        <ele>1197</ele>
        <time>2016-01-01T11:38:26+01:00</time>
      </trkpt>
      <trkpt lat="42.89705" lon="1.436">
        <ele>1204</ele>
        <time>2016-01-01T11:38:31+01:00</time>
      </trkpt>
      <trkpt lat="42.89719" lon="1.43696">
        <ele>1198</ele>
        <time>2016-01-01T11:38:36+01:00</time>
      </trkpt>
      <trkpt lat="42.89722" lon="1.43791">
        <ele>1195</ele>
        <time>2016-01-01T11:38:41+01:00</time>
      </trkpt>
      <trkpt lat="42.89688" lon="1.43843">
        <ele>1199</ele>
        <time>2016-01-01T11:38:46+01:00</time>
      </trkpt>
      <trkpt lat="42.89771" lon="1.43807">
        <ele>1189</ele>
        <time>2016-01-01T11:38:51+01:00</time>
      </trkpt>
      <trkpt lat="42.89822" lon="1.43815">
        <ele>1179</ele>
        <time>2016-01-01T11:38:56+01:00</time>
      </trkpt>
      <trkpt lat="42.89841" lon="1.43896">
        <ele>1173</ele>
        <time>2016-01-01T11:39:01+01:00</time>
      </trkpt>
      <trkpt lat="42.89802" lon="1.44027">
        <ele>1171</ele>
        <time>2016-01-01T11:39:06+01:00</time>
      </trkpt>
      <trkpt lat="42.89704" lon="1.44175">
        <ele>1191</ele>
        <time>2016-01-01T11:39:11+01:00</time>
      </trkpt>
      <trkpt lat="42.89727" lon="1.44266">
        <ele>1182</ele>
        <time>2016-01-01T11:39:16+01:00</time>
      </trkpt>
      <trkpt lat="42.89861" lon="1.44298">
        <ele>1171</ele>
        <time>2016-01-01T11:39:21+01:00</time>
      </trkpt>
      <trkpt lat="42.89875" lon="1.44376">
        <ele>1177</ele>
        <time>2016-01-01T11:39:26+01:00</time>
      </trkpt>
      <trkpt lat="42.89883" lon="1.44454">
        <ele>1178</ele>
        <time>2016-01-01T11:39:31+01:00</time>
      </trkpt>
      <trkpt lat="42.89841" lon="1.44532">
        <ele>1189</ele>
        <time>2016-01-01T11:39:36+01:00</time>
      </trkpt>
      <trkpt lat="42.89819" lon="1.44602">
        <ele>1199</ele>
        <time>2016-01-01T11:39:41+01:00</time>
      </trkpt>
      <trkpt lat="42.89894" lon="1.4465">
        <ele>1191</ele>
        <time>2016-01-01T11:39:46+01:00</time>
      </trkpt>
      <trkpt lat="42.89924" lon="1.44823">
        <ele>1216</ele>
        <time>2016-01-01T11:39:51+01:00</time>
      </trkpt>
      <trkpt lat="42.89912" lon="1.45004">
        <ele>1235</ele>
        <time>2016-01-01T11:39:56+01:00</time>
      </trkpt>
      <trkpt lat="42.89894" lon="1.45167">
        <ele>1243</ele>
        <time>2016-01-01T11:40:01+01:00</time>
      </trkpt>
      <trkpt lat="42.8993" lon="1.45261">
        <ele>1251</ele>
        <time>2016-01-01T11:40:06+01:00</time>
      </trkpt>
      <trkpt lat="42.89922" lon="1.45257">
        <ele>1249</ele>
        <time>2016-01-01T11:40:11+01:00</time>
      </trkpt>
    </trkseg>
  </trk>
</gpx>